Time;durP1;ratioP1;P1;durP2;ratioP2;P2;SDS_P1;SDS_P2;PMS_P1;PMS_P2;Temp;Humidity;BMP_temperature;BMP_pressure;BME280_temperature;BME280_humidity;BME280_pressure;Samples;Min_cycle;Max_cycle;Signal;HPM_P1;HPM_P2
2021/12/18 00:00:42;;;;;;;45.27;22.87;;;;;;;;;;4973639;28;20054;-78
2021/12/18 00:03:49;;;;;;;58.13;29.77;;;;;;;;;;4941519;28;20058;-77
2021/12/18 00:06:57;;;;;;;39.53;19.83;;;;;;;;;;4962409;28;20496;-78
2021/12/18 00:10:04;;;;;;;40.83;21.30;;;;;;;;;;4962520;28;20496;-78
2021/12/18 00:13:11;;;;;;;40.63;19.97;;;;;;;;;;4962430;28;20518;-78
2021/12/18 00:16:17;;;;;;;36.80;17.73;;;;;;;;;;4952339;28;20043;-78
2021/12/18 00:19:26;;;;;;;43.40;23.87;;;;;;;;;;4963433;28;20053;-81
2021/12/18 00:22:32;;;;;;;40.33;22.43;;;;;;;;;;4955691;28;20535;-78
2021/12/18 00:25:40;;;;;;;41.23;22.57;;;;;;;;;;4952747;28;20043;-77
2021/12/18 00:28:47;;;;;;;51.57;25.73;;;;;;;;;;4982920;28;20053;-78
2021/12/18 00:31:54;;;;;;;34.17;18.43;;;;;;;;;;4975414;28;20053;-77
2021/12/18 00:35:01;;;;;;;35.83;19.10;;;;;;;;;;4953855;28;20050;-78
2021/12/18 00:38:08;;;;;;;36.57;19.07;;;;;;;;;;4958799;28;20042;-77
2021/12/18 00:44:39;;;;;;;31.47;17.07;;;;;;;;;;4946169;28;20066;-80
2021/12/18 00:47:46;;;;;;;41.80;20.77;;;;;;;;;;4968388;28;20447;-79
2021/12/18 00:50:53;;;;;;;36.83;20.33;;;;;;;;;;4948052;29;20515;-79
2021/12/18 00:53:59;;;;;;;24.53;13.57;;;;;;;;;;4937437;28;20062;-80
2021/12/18 00:57:06;;;;;;;25.07;12.97;;;;;;;;;;4967560;28;20043;-79
2021/12/18 01:00:15;;;;;;;32.57;18.30;;;;;;;;;;4956266;28;20061;-79
2021/12/18 01:03:21;;;;;;;33.60;19.87;;;;;;;;;;4944953;28;20412;-79
2021/12/18 01:06:28;;;;;;;27.87;15.60;;;;;;;;;;4957069;28;20058;-79
2021/12/18 01:12:52;;;;;;;36.17;17.63;;;;;;;;;;4949164;28;20173;-79
2021/12/18 01:16:06;;;;;;;18.20;9.77;;;;;;;;;;4968088;28;20045;-79
2021/12/18 01:22:48;;;;;;;25.00;13.87;;;;;;;;;;4955557;28;20507;-78
2021/12/18 01:25:55;;;;;;;27.47;17.03;;;;;;;;;;4937085;29;20058;-78
2021/12/18 01:29:02;;;;;;;25.53;16.20;;;;;;;;;;4969055;28;20047;-79
2021/12/18 01:32:09;;;;;;;26.87;11.57;;;;;;;;;;4967764;28;20049;-79
2021/12/18 01:35:15;;;;;;;19.63;8.20;;;;;;;;;;4967137;28;20050;-80
2021/12/18 01:38:23;;;;;;;22.13;14.87;;;;;;;;;;4937873;29;20519;-79
2021/12/18 01:41:38;;;;;;;20.27;11.83;;;;;;;;;;4955142;28;20065;-77
2021/12/18 01:55:15;;;;;;;31.17;11.60;;;;;;;;;;4968209;28;20484;-79
2021/12/18 01:58:25;;;;;;;19.23;11.13;;;;;;;;;;4968034;28;20047;-79
2021/12/18 02:01:35;;;;;;;18.83;11.97;;;;;;;;;;4969068;28;20059;-81
2021/12/18 02:04:41;;;;;;;21.77;14.03;;;;;;;;;;4935894;28;20047;-80
2021/12/18 02:07:47;;;;;;;22.73;11.83;;;;;;;;;;4968940;28;20046;-80
2021/12/18 02:11:00;;;;;;;10.70;5.27;;;;;;;;;;4956999;28;20050;-78
2021/12/18 02:20:48;;;;;;;18.80;10.80;;;;;;;;;;4955814;28;20542;-77
2021/12/18 02:23:54;;;;;;;16.63;7.77;;;;;;;;;;4937556;28;20065;-77
2021/12/18 02:31:23;;;;;;;4.33;3.00;;;;;;;;;;4977711;28;20127;-78
2021/12/18 02:34:31;;;;;;;3.90;3.03;;;;;;;;;;4944582;28;20497;-81
2021/12/18 02:37:41;;;;;;;4.10;2.90;;;;;;;;;;4965311;28;20046;-79
2021/12/18 02:44:03;;;;;;;5.67;3.30;;;;;;;;;;4960453;28;20054;-77
2021/12/18 02:47:10;;;;;;;4.23;3.00;;;;;;;;;;4976412;28;20050;-77
2021/12/18 02:50:16;;;;;;;2.80;2.07;;;;;;;;;;4946196;28;20415;-79
2021/12/18 02:53:23;;;;;;;4.57;3.10;;;;;;;;;;4944207;28;20412;-79
2021/12/18 02:56:30;;;;;;;4.50;3.60;;;;;;;;;;4955856;28;20046;-79
2021/12/18 02:59:47;;;;;;;3.70;2.20;;;;;;;;;;4965840;28;20058;-80
2021/12/18 03:02:54;;;;;;;3.93;3.20;;;;;;;;;;4944522;28;20061;-80
2021/12/18 03:18:56;;;;;;;10.07;7.53;;;;;;;;;;4946243;29;20066;-79
2021/12/18 03:20:59;;;;;;;4.60;2.80;;;;;;;;;;4953026;28;20523;-80
2021/12/18 03:23:45;;;;;;;4.80;2.93;;;;;;;;;;4963689;28;20065;-78
2021/12/18 03:31:38;;;;;;;3.50;2.23;;;;;;;;;;4977202;28;20030;-76
2021/12/18 03:34:46;;;;;;;9.47;4.73;;;;;;;;;;4966745;28;20411;-79
2021/12/18 03:37:52;;;;;;;4.73;3.17;;;;;;;;;;4958660;28;20061;-80
2021/12/18 03:40:59;;;;;;;6.67;3.37;;;;;;;;;;4959274;28;20054;-81
2021/12/18 03:44:05;;;;;;;6.60;3.43;;;;;;;;;;4958070;28;20079;-81
2021/12/18 03:47:11;;;;;;;6.90;3.57;;;;;;;;;;4957024;28;20054;-81
2021/12/18 03:50:18;;;;;;;4.67;2.63;;;;;;;;;;4967245;28;20043;-79
2021/12/18 03:53:24;;;;;;;4.07;2.80;;;;;;;;;;4957252;28;20616;-80
2021/12/18 03:56:31;;;;;;;4.23;2.80;;;;;;;;;;4959407;28;20053;-80
2021/12/18 03:59:37;;;;;;;2.70;2.37;;;;;;;;;;4956254;28;20527;-78
2021/12/18 04:02:44;;;;;;;2.23;1.67;;;;;;;;;;4955671;28;20061;-81
2021/12/18 04:05:51;;;;;;;2.73;2.43;;;;;;;;;;4957952;28;20057;-80
2021/12/18 04:08:58;;;;;;;2.70;1.90;;;;;;;;;;4968147;28;20070;-79
2021/12/18 04:12:05;;;;;;;7.13;4.77;;;;;;;;;;4967391;28;20073;-80
2021/12/18 04:15:11;;;;;;;5.63;4.03;;;;;;;;;;4956339;28;20057;-79
2021/12/18 04:18:42;;;;;;;8.47;3.73;;;;;;;;;;4968945;28;20053;-79
2021/12/18 04:21:49;;;;;;;8.00;5.40;;;;;;;;;;4966451;28;20412;-79
2021/12/18 04:24:55;;;;;;;5.40;3.87;;;;;;;;;;4987792;28;20521;-80
2021/12/18 04:28:01;;;;;;;28.97;17.60;;;;;;;;;;4987361;28;20619;-80
2021/12/18 04:31:07;;;;;;;4.90;2.80;;;;;;;;;;4986694;28;20049;-79
2021/12/18 04:38:11;;;;;;;6.97;3.27;;;;;;;;;;4947643;29;20054;-79
2021/12/18 04:41:23;;;;;;;6.33;2.37;;;;;;;;;;4937679;29;20051;-79
2021/12/18 04:44:29;;;;;;;5.20;3.23;;;;;;;;;;4946251;29;20054;-77
2021/12/18 04:47:35;;;;;;;5.13;3.73;;;;;;;;;;4933737;29;20437;-77
2021/12/18 04:50:42;;;;;;;4.30;2.43;;;;;;;;;;4934528;29;20046;-78
2021/12/18 04:53:48;;;;;;;2.70;2.20;;;;;;;;;;4937675;29;20408;-78
2021/12/18 04:56:54;;;;;;;13.70;7.93;;;;;;;;;;4947973;28;20409;-78
2021/12/18 05:00:36;;;;;;;5.83;3.70;;;;;;;;;;4966686;28;20511;-78
2021/12/18 05:03:44;;;;;;;15.57;8.13;;;;;;;;;;4954252;28;20061;-77
2021/12/18 05:06:52;;;;;;;9.40;5.93;;;;;;;;;;4965227;28;20054;-78
2021/12/18 05:09:58;;;;;;;18.40;11.57;;;;;;;;;;4961517;28;20057;-74
2021/12/18 05:13:05;;;;;;;8.07;4.63;;;;;;;;;;4957632;29;20047;-80
2021/12/18 05:16:11;;;;;;;3.57;2.70;;;;;;;;;;4979719;28;20027;-80
2021/12/18 05:19:19;;;;;;;3.00;2.10;;;;;;;;;;4957614;28;254087;-78
2021/12/18 05:22:26;;;;;;;5.40;3.27;;;;;;;;;;4957869;28;20059;-84
2021/12/18 05:25:33;;;;;;;3.50;2.50;;;;;;;;;;4951242;28;20043;-85
2021/12/18 05:28:42;;;;;;;5.67;2.50;;;;;;;;;;4984715;28;20047;-80
2021/12/18 05:31:52;;;;;;;5.07;3.00;;;;;;;;;;4954519;29;20047;-84
2021/12/18 05:34:59;;;;;;;5.33;3.60;;;;;;;;;;4924070;29;20059;-83
2021/12/18 05:38:10;;;;;;;7.47;4.07;;;;;;;;;;4925305;29;20044;-82
2021/12/18 05:41:18;;;;;;;6.60;3.00;;;;;;;;;;4942892;29;20074;-80
2021/12/18 05:44:25;;;;;;;5.50;2.43;;;;;;;;;;4940137;28;20496;-78
2021/12/18 05:47:35;;;;;;;4.67;3.50;;;;;;;;;;4955266;28;20035;-80
2021/12/18 05:50:45;;;;;;;5.60;3.03;;;;;;;;;;4951339;28;20042;-80
2021/12/18 05:53:52;;;;;;;6.90;4.03;;;;;;;;;;4957044;29;20035;-78
2021/12/18 05:56:59;;;;;;;7.87;5.03;;;;;;;;;;4940228;29;20046;-81
2021/12/18 06:00:06;;;;;;;7.17;4.43;;;;;;;;;;4926146;29;20051;-80
2021/12/18 06:03:15;;;;;;;6.00;3.47;;;;;;;;;;4950569;29;20048;-80
2021/12/18 06:06:22;;;;;;;9.80;5.47;;;;;;;;;;4937301;28;20046;-78
2021/12/18 06:09:28;;;;;;;9.27;4.20;;;;;;;;;;4918375;29;20055;-82
2021/12/18 06:12:34;;;;;;;6.23;3.47;;;;;;;;;;4951990;29;20058;-82
2021/12/18 06:15:52;;;;;;;3.33;2.13;;;;;;;;;;4932158;29;20051;-82
2021/12/18 06:19:13;;;;;;;5.03;1.43;;;;;;;;;;4917194;29;20035;-81
2021/12/18 06:22:21;;;;;;;3.67;1.30;;;;;;;;;;4950292;29;20059;-83
2021/12/18 06:25:29;;;;;;;1.73;1.20;;;;;;;;;;4943856;29;20417;-82
2021/12/18 06:28:40;;;;;;;2.07;1.30;;;;;;;;;;4929014;29;20035;-81
2021/12/18 06:31:50;;;;;;;2.03;1.58;;;;;;;;;;4925617;29;20047;-84
2021/12/18 06:35:01;;;;;;;2.43;1.77;;;;;;;;;;4935892;29;20042;-82
2021/12/18 06:38:10;;;;;;;2.15;1.40;;;;;;;;;;4971105;28;20031;-80
2021/12/18 06:41:19;;;;;;;2.50;1.40;;;;;;;;;;4953638;29;20043;-80
2021/12/18 06:44:28;;;;;;;3.83;2.03;;;;;;;;;;4930599;28;20058;-79
2021/12/18 06:47:34;;;;;;;3.53;1.60;;;;;;;;;;4935997;29;20047;-75
2021/12/18 06:50:41;;;;;;;1.77;1.50;;;;;;;;;;4930387;29;20047;-75
2021/12/18 06:53:48;;;;;;;3.03;1.57;;;;;;;;;;4917631;29;20051;-75
2021/12/18 06:56:54;;;;;;;2.40;1.40;;;;;;;;;;4915256;29;20035;-74
2021/12/18 07:00:01;;;;;;;2.57;1.50;;;;;;;;;;4926389;29;20055;-71
2021/12/18 07:03:08;;;;;;;2.50;1.90;;;;;;;;;;4942273;28;20066;-74
2021/12/18 07:06:16;;;;;;;3.13;1.97;;;;;;;;;;4949187;29;20050;-80
2021/12/18 07:09:24;;;;;;;2.60;1.63;;;;;;;;;;4943477;29;20048;-79
2021/12/18 07:12:31;;;;;;;3.07;1.80;;;;;;;;;;4921846;29;20050;-80
2021/12/18 07:15:38;;;;;;;2.43;1.60;;;;;;;;;;4943306;28;20043;-78
2021/12/18 07:18:45;;;;;;;5.93;2.07;;;;;;;;;;4921522;29;20043;-80
2021/12/18 07:21:54;;;;;;;3.27;1.70;;;;;;;;;;4956816;28;20059;-81
2021/12/18 07:25:10;;;;;;;3.60;2.50;;;;;;;;;;4954905;28;20139;-81
2021/12/18 07:28:17;;;;;;;6.00;4.13;;;;;;;;;;4954586;28;20053;-80
2021/12/18 07:31:25;;;;;;;3.67;2.80;;;;;;;;;;4964510;28;20050;-81
2021/12/18 07:34:31;;;;;;;2.37;1.90;;;;;;;;;;4928024;29;20059;-78
2021/12/18 07:37:39;;;;;;;5.13;3.00;;;;;;;;;;4935000;28;20058;-80
2021/12/18 07:40:46;;;;;;;3.77;2.67;;;;;;;;;;4934736;29;20421;-80
2021/12/18 07:43:55;;;;;;;3.90;3.03;;;;;;;;;;4938634;28;20027;-81
2021/12/18 07:47:02;;;;;;;5.47;3.23;;;;;;;;;;4957611;29;20059;-80
2021/12/18 07:53:29;;;;;;;4.07;3.17;;;;;;;;;;5048872;23;211142;-82
2021/12/18 07:56:39;;;;;;;4.23;3.23;;;;;;;;;;4897587;29;20044;-83
2021/12/18 07:59:50;;;;;;;8.77;5.60;;;;;;;;;;4898007;29;20054;-81
2021/12/18 08:02:58;;;;;;;7.00;5.67;;;;;;;;;;5103226;23;20048;-80
2021/12/18 08:06:04;;;;;;;4.73;3.47;;;;;;;;;;4923498;29;20040;-80
2021/12/18 08:09:11;;;;;;;5.77;4.37;;;;;;;;;;4900878;29;20059;-80
2021/12/18 08:12:17;;;;;;;6.07;4.90;;;;;;;;;;4928770;29;20044;-82
2021/12/18 08:15:25;;;;;;;7.90;3.97;;;;;;;;;;4937043;29;20042;-84
2021/12/18 08:18:32;;;;;;;4.20;2.43;;;;;;;;;;4916900;29;20056;-83
2021/12/18 08:21:41;;;;;;;10.73;3.90;;;;;;;;;;4906954;29;20044;-83
2021/12/18 08:24:47;;;;;;;4.20;2.70;;;;;;;;;;4906795;29;20060;-81
2021/12/18 08:27:59;;;;;;;3.70;2.33;;;;;;;;;;4929339;29;20028;-81
2021/12/18 08:31:06;;;;;;;3.80;2.57;;;;;;;;;;4927952;28;171762;-81
2021/12/18 08:34:13;;;;;;;5.20;3.10;;;;;;;;;;4949680;29;20038;-82
2021/12/18 08:37:20;;;;;;;3.03;2.37;;;;;;;;;;4921201;29;20036;-80
2021/12/18 08:40:36;;;;;;;4.13;2.83;;;;;;;;;;4945097;29;20036;-80
2021/12/18 08:43:43;;;;;;;14.43;10.10;;;;;;;;;;4930907;29;20052;-83
2021/12/18 08:46:50;;;;;;;8.93;6.77;;;;;;;;;;4921933;29;20046;-83
2021/12/18 08:49:56;;;;;;;4.57;3.23;;;;;;;;;;4936302;29;20048;-81
2021/12/18 08:53:02;;;;;;;8.50;4.93;;;;;;;;;;4924523;29;20521;-82
2021/12/18 08:56:09;;;;;;;7.40;4.27;;;;;;;;;;4916495;29;20040;-82
2021/12/18 08:59:15;;;;;;;5.47;3.27;;;;;;;;;;4938424;28;20042;-81
2021/12/18 09:02:23;;;;;;;4.27;3.03;;;;;;;;;;4940833;29;20519;-80
2021/12/18 09:05:30;;;;;;;5.33;2.97;;;;;;;;;;4929547;28;20060;-79
2021/12/18 09:08:37;;;;;;;12.33;6.77;;;;;;;;;;4928456;29;20048;-82
2021/12/18 09:11:44;;;;;;;5.03;2.77;;;;;;;;;;4915987;28;20040;-79
2021/12/18 09:14:50;;;;;;;5.63;4.10;;;;;;;;;;4921559;29;20051;-81
2021/12/18 09:17:56;;;;;;;3.00;1.97;;;;;;;;;;4907187;29;20063;-82
2021/12/18 09:21:03;;;;;;;5.77;3.40;;;;;;;;;;4931507;29;20040;-81
2021/12/18 09:24:10;;;;;;;6.23;3.63;;;;;;;;;;4930363;28;20060;-81
2021/12/18 09:27:17;;;;;;;5.83;4.63;;;;;;;;;;4929705;29;20047;-81
2021/12/18 09:30:24;;;;;;;4.20;2.30;;;;;;;;;;4913774;29;20556;-80
2021/12/18 09:33:30;;;;;;;4.53;3.23;;;;;;;;;;4932799;29;20056;-79
2021/12/18 09:36:38;;;;;;;3.33;2.00;;;;;;;;;;4899466;29;20055;-79
2021/12/18 09:39:45;;;;;;;4.93;3.30;;;;;;;;;;4924233;29;20047;-81
2021/12/18 09:42:52;;;;;;;14.13;7.70;;;;;;;;;;4944301;28;20060;-79
2021/12/18 09:46:07;;;;;;;23.10;12.73;;;;;;;;;;4934621;29;20044;-80
2021/12/18 09:49:16;;;;;;;19.63;11.70;;;;;;;;;;4904583;29;20045;-81
2021/12/18 09:52:22;;;;;;;25.93;15.50;;;;;;;;;;4940831;28;20055;-81
2021/12/18 09:55:30;;;;;;;7.40;4.33;;;;;;;;;;4933059;28;20059;-80
2021/12/18 09:58:36;;;;;;;3.20;2.20;;;;;;;;;;4939230;28;20535;-80
2021/12/18 10:01:43;;;;;;;5.67;4.10;;;;;;;;;;4938578;29;20046;-80
2021/12/18 10:04:51;;;;;;;2.43;1.83;;;;;;;;;;4948352;28;20051;-80
2021/12/18 10:08:12;;;;;;;7.30;3.63;;;;;;;;;;4941091;29;20036;-78
2021/12/18 10:11:18;;;;;;;5.17;2.50;;;;;;;;;;4912595;29;20052;-82
2021/12/18 10:14:37;;;;;;;10.93;4.03;;;;;;;;;;4928716;29;20055;-79
2021/12/18 10:17:43;;;;;;;2.37;1.63;;;;;;;;;;4954419;28;20051;-81
2021/12/18 10:21:08;;;;;;;3.83;1.93;;;;;;;;;;4932318;29;20424;-80
2021/12/18 10:24:16;;;;;;;6.13;2.17;;;;;;;;;;4922543;29;20056;-80
2021/12/18 10:27:24;;;;;;;3.17;1.83;;;;;;;;;;4919252;29;20141;-82
2021/12/18 10:30:31;;;;;;;7.23;3.23;;;;;;;;;;4922105;29;20531;-81
2021/12/18 10:33:38;;;;;;;4.73;1.90;;;;;;;;;;4913766;29;20047;-80
2021/12/18 10:37:05;;;;;;;2.37;1.60;;;;;;;;;;4915511;29;20055;-82
2021/12/18 10:40:13;;;;;;;3.90;1.40;;;;;;;;;;4941109;28;20060;-81
2021/12/18 10:43:23;;;;;;;2.20;1.70;;;;;;;;;;4917738;29;20060;-81
2021/12/18 10:46:31;;;;;;;2.37;1.70;;;;;;;;;;4937738;28;20052;-82
2021/12/18 10:49:41;;;;;;;3.33;1.83;;;;;;;;;;4928796;29;20059;-81
2021/12/18 10:52:52;;;;;;;2.50;1.93;;;;;;;;;;4920091;29;20040;-80
2021/12/18 10:56:02;;;;;;;3.55;1.55;;;;;;;;;;4920016;29;20055;-81
2021/12/18 10:59:31;;;;;;;3.00;1.63;;;;;;;;;;4915695;29;20055;-81
2021/12/18 11:02:43;;;;;;;2.30;1.40;;;;;;;;;;4942882;28;20055;-81
2021/12/18 11:06:08;;;;;;;4.85;3.00;;;;;;;;;;4923894;28;20066;-80
2021/12/18 11:09:16;;;;;;;6.27;3.67;;;;;;;;;;4929808;29;20059;-80
2021/12/18 11:15:48;;;;;;;3.40;2.40;;;;;;;;;;4918531;29;20063;-79
2021/12/18 11:18:55;;;;;;;3.87;1.23;;;;;;;;;;4902806;29;20058;-79
2021/12/18 11:22:07;;;;;;;5.87;3.43;;;;;;;;;;4939188;29;20062;-81
2021/12/18 11:25:14;;;;;;;2.95;2.20;;;;;;;;;;4930036;29;20054;-77
2021/12/18 11:28:26;;;;;;;3.67;2.50;;;;;;;;;;4954585;28;20035;-78
2021/12/18 11:31:32;;;;;;;2.57;1.43;;;;;;;;;;4892949;29;49860;-77
2021/12/18 11:34:39;;;;;;;2.27;1.20;;;;;;;;;;4928694;29;20032;-78
2021/12/18 11:38:12;;;;;;;1.73;1.33;;;;;;;;;;4917585;29;20055;-82
2021/12/18 11:41:21;;;;;;;1.80;1.50;;;;;;;;;;4935441;28;20070;-80
2021/12/18 11:44:33;;;;;;;4.20;2.67;;;;;;;;;;4924957;29;20055;-80
2021/12/18 11:48:01;;;;;;;2.90;2.20;;;;;;;;;;4842778;28;2283812;-83
2021/12/18 11:51:14;;;;;;;4.93;2.93;;;;;;;;;;4956725;28;20028;-80
2021/12/18 11:54:45;;;;;;;3.73;2.50;;;;;;;;;;4938800;29;20051;-83
2021/12/18 11:57:53;;;;;;;3.13;2.00;;;;;;;;;;4928651;29;20048;-81
2021/12/18 12:01:02;;;;;;;3.27;2.67;;;;;;;;;;4945064;29;20043;-84
2021/12/18 12:04:09;;;;;;;3.30;2.80;;;;;;;;;;4932360;29;20059;-78
2021/12/18 12:07:21;;;;;;;3.53;2.07;;;;;;;;;;4930468;29;20030;-83
2021/12/18 12:13:57;;;;;;;4.40;3.03;;;;;;;;;;4965190;28;19929;-78
2021/12/18 12:17:16;;;;;;;3.50;2.30;;;;;;;;;;4960753;28;20055;-81
2021/12/18 12:20:37;;;;;;;4.77;2.40;;;;;;;;;;4939291;29;20040;-81
2021/12/18 12:24:10;;;;;;;4.03;1.90;;;;;;;;;;4958703;29;20043;-84
2021/12/18 12:27:33;;;;;;;2.27;1.70;;;;;;;;;;4945691;29;20047;-82
2021/12/18 12:30:43;;;;;;;5.13;1.87;;;;;;;;;;4944805;28;20051;-83
2021/12/18 12:33:50;;;;;;;4.37;2.23;;;;;;;;;;4946759;28;20052;-82
2021/12/18 12:36:58;;;;;;;4.37;2.70;;;;;;;;;;4964017;28;20048;-83
2021/12/18 12:40:07;;;;;;;4.00;2.57;;;;;;;;;;4958857;28;20062;-83
2021/12/18 12:43:29;;;;;;;5.10;2.33;;;;;;;;;;4946281;29;20055;-83
2021/12/18 12:46:35;;;;;;;2.97;2.20;;;;;;;;;;4946200;29;20027;-83
2021/12/18 12:49:43;;;;;;;4.27;2.40;;;;;;;;;;4946952;29;20055;-82
2021/12/18 12:52:53;;;;;;;4.10;2.60;;;;;;;;;;4968801;28;20047;-82
2021/12/18 12:56:13;;;;;;;4.67;2.67;;;;;;;;;;4965388;28;20051;-80
2021/12/18 12:59:25;;;;;;;5.60;3.40;;;;;;;;;;4959353;28;20050;-79
2021/12/18 13:02:52;;;;;;;6.37;4.37;;;;;;;;;;4923441;29;20063;-80
2021/12/18 13:06:00;;;;;;;4.13;2.60;;;;;;;;;;4903944;29;20505;-80
2021/12/18 13:09:18;;;;;;;3.90;2.40;;;;;;;;;;4938619;28;20121;-81
2021/12/18 13:12:30;;;;;;;6.10;3.40;;;;;;;;;;4939871;29;20052;-83
2021/12/18 13:16:57;;;;;;;4.80;3.47;;;;;;;;;;4931646;29;20044;-82
2021/12/18 13:29:52;;;;;;;9.33;4.90;;;;;;;;;;4951345;28;20051;-85
2021/12/18 13:33:25;;;;;;;6.23;3.43;;;;;;;;;;4923639;29;20044;-82
2021/12/18 13:36:40;;;;;;;4.80;3.17;;;;;;;;;;4937562;29;20394;-80
2021/12/18 13:39:53;;;;;;;7.13;4.50;;;;;;;;;;4921760;29;20055;-80
2021/12/18 13:43:27;;;;;;;6.85;4.05;;;;;;;;;;4974071;23;20055;-83
2021/12/18 13:46:33;;;;;;;7.13;4.25;;;;;;;;;;4943766;28;20046;-77
2021/12/18 13:49:45;;;;;;;7.97;4.20;;;;;;;;;;4945619;28;20047;-82
2021/12/18 13:52:59;;;;;;;6.47;4.28;;;;;;;;;;4950254;28;20531;-81
2021/12/18 13:56:11;;;;;;;4.95;3.03;;;;;;;;;;4948639;28;20054;-81
2021/12/18 13:59:23;;;;;;;4.37;2.67;;;;;;;;;;4977386;28;20047;-80
2021/12/18 14:02:32;;;;;;;10.47;6.40;;;;;;;;;;4956968;28;20054;-82
2021/12/18 14:05:40;;;;;;;9.67;2.50;;;;;;;;;;4968878;28;20057;-81
2021/12/18 14:08:58;;;;;;;4.40;2.47;;;;;;;;;;4974060;28;20050;-81
2021/12/18 14:12:07;;;;;;;3.90;2.70;;;;;;;;;;4977013;28;20404;-82
2021/12/18 14:15:19;;;;;;;1.60;1.10;;;;;;;;;;4954000;29;20058;-81
2021/12/18 14:18:33;;;;;;;1.77;1.40;;;;;;;;;;4967411;28;20055;-83
2021/12/18 14:21:46;;;;;;;3.00;1.30;;;;;;;;;;4956133;29;20500;-79
2021/12/18 14:25:00;;;;;;;2.03;1.60;;;;;;;;;;4935016;29;20070;-80
2021/12/18 14:28:06;;;;;;;2.30;1.60;;;;;;;;;;4959720;28;20047;-80
2021/12/18 14:31:28;;;;;;;2.37;1.67;;;;;;;;;;4949476;28;20294;-80
2021/12/18 14:34:39;;;;;;;3.53;2.67;;;;;;;;;;4954110;28;20043;-79
2021/12/18 14:37:59;;;;;;;3.30;2.27;;;;;;;;;;4941169;28;20039;-82
2021/12/18 14:41:06;;;;;;;4.23;3.30;;;;;;;;;;4954413;28;20050;-78
2021/12/18 14:44:12;;;;;;;5.40;3.00;;;;;;;;;;4959067;28;20065;-80
2021/12/18 14:47:24;;;;;;;7.07;3.77;;;;;;;;;;4952482;29;20047;-81
2021/12/18 14:50:41;;;;;;;3.45;1.98;;;;;;;;;;4950026;28;20058;-81
2021/12/18 14:53:57;;;;;;;2.93;2.40;;;;;;;;;;4971043;29;20047;-83
2021/12/18 14:57:19;;;;;;;2.87;2.07;;;;;;;;;;4959809;28;20047;-83
2021/12/18 15:00:35;;;;;;;3.07;2.20;;;;;;;;;;4964953;28;20050;-82
2021/12/18 15:03:52;;;;;;;2.00;1.23;;;;;;;;;;4948239;28;20062;-81
2021/12/18 15:07:00;;;;;;;2.40;1.83;;;;;;;;;;4958038;28;20062;-84
2021/12/18 15:10:07;;;;;;;2.47;1.43;;;;;;;;;;4941310;29;20055;-79
2021/12/18 15:13:14;;;;;;;4.50;1.90;;;;;;;;;;4958518;28;20051;-79
2021/12/18 15:16:28;;;;;;;2.80;1.57;;;;;;;;;;4947950;29;20046;-79
2021/12/18 15:19:36;;;;;;;2.10;1.40;;;;;;;;;;4926543;29;20058;-81
2021/12/18 15:22:42;;;;;;;2.80;1.33;;;;;;;;;;4926645;29;20058;-81
2021/12/18 15:25:53;;;;;;;2.37;1.47;;;;;;;;;;4936173;29;20062;-81
2021/12/18 15:29:00;;;;;;;2.90;2.20;;;;;;;;;;4947552;28;20417;-81
2021/12/18 15:32:07;;;;;;;2.73;1.87;;;;;;;;;;4947642;29;20058;-81
2021/12/18 15:35:14;;;;;;;2.27;1.57;;;;;;;;;;4931387;29;20056;-80
2021/12/18 15:38:20;;;;;;;5.47;3.30;;;;;;;;;;4930904;29;20058;-79
2021/12/18 15:41:29;;;;;;;4.73;3.00;;;;;;;;;;4942104;29;20043;-80
2021/12/18 15:44:37;;;;;;;3.63;2.47;;;;;;;;;;4933119;29;20067;-79
2021/12/18 15:47:43;;;;;;;3.03;2.10;;;;;;;;;;4927348;29;20421;-80
2021/12/18 15:50:49;;;;;;;4.93;3.50;;;;;;;;;;4927150;29;20058;-79
2021/12/18 15:53:57;;;;;;;3.37;2.60;;;;;;;;;;4927027;28;20050;-80
2021/12/18 15:57:03;;;;;;;6.37;3.90;;;;;;;;;;4937417;28;20047;-80
2021/12/18 16:00:10;;;;;;;4.87;3.53;;;;;;;;;;4947280;29;20058;-80
2021/12/18 16:03:18;;;;;;;4.93;2.90;;;;;;;;;;4947187;28;20062;-80
2021/12/18 16:06:30;;;;;;;4.90;2.93;;;;;;;;;;4943805;28;20062;-80
2021/12/18 16:09:39;;;;;;;5.57;3.20;;;;;;;;;;4944575;28;20536;-80
2021/12/18 16:12:46;;;;;;;6.27;4.13;;;;;;;;;;4944483;28;20046;-80
2021/12/18 16:15:53;;;;;;;6.87;3.90;;;;;;;;;;4945236;28;20139;-80
2021/12/18 16:18:59;;;;;;;8.43;4.73;;;;;;;;;;4945170;28;20050;-80
2021/12/18 16:22:09;;;;;;;9.00;4.80;;;;;;;;;;4955698;28;20050;-79
2021/12/18 16:25:16;;;;;;;8.23;4.77;;;;;;;;;;4944452;28;20054;-81
2021/12/18 16:28:23;;;;;;;7.80;4.50;;;;;;;;;;4946145;28;20058;-80
2021/12/18 16:31:29;;;;;;;8.60;5.10;;;;;;;;;;4927590;29;20515;-80
2021/12/18 16:34:35;;;;;;;8.37;4.90;;;;;;;;;;4944794;28;20047;-80
2021/12/18 16:37:54;;;;;;;9.87;4.43;;;;;;;;;;4941927;28;20058;-80
2021/12/18 16:41:01;;;;;;;4.70;3.53;;;;;;;;;;4945343;29;20058;-80
2021/12/18 16:44:07;;;;;;;8.27;4.40;;;;;;;;;;4944628;28;20074;-80
2021/12/18 16:47:14;;;;;;;6.87;4.97;;;;;;;;;;4955158;28;20057;-81
2021/12/18 16:50:21;;;;;;;7.10;4.57;;;;;;;;;;4956705;28;20059;-81
2021/12/18 16:53:28;;;;;;;7.83;4.23;;;;;;;;;;4944895;28;20050;-81
2021/12/18 16:56:34;;;;;;;9.23;4.97;;;;;;;;;;4945483;28;20047;-80
2021/12/18 16:59:41;;;;;;;8.37;5.27;;;;;;;;;;4944594;29;20054;-80
2021/12/18 17:02:47;;;;;;;4.67;3.07;;;;;;;;;;4938843;28;20055;-81
2021/12/18 17:05:53;;;;;;;8.77;5.23;;;;;;;;;;4925597;29;20144;-80
2021/12/18 17:09:00;;;;;;;7.93;5.40;;;;;;;;;;4925605;29;20074;-79
2021/12/18 17:12:06;;;;;;;8.57;6.37;;;;;;;;;;4930673;28;20059;-78
2021/12/18 17:15:13;;;;;;;7.93;5.47;;;;;;;;;;4943698;28;20047;-79
2021/12/18 17:18:20;;;;;;;8.97;5.47;;;;;;;;;;4962916;29;20058;-82
2021/12/18 17:21:27;;;;;;;10.53;6.13;;;;;;;;;;4948145;29;20428;-79
2021/12/18 17:24:33;;;;;;;10.27;5.90;;;;;;;;;;4943172;28;20059;-79
2021/12/18 17:27:40;;;;;;;7.83;5.57;;;;;;;;;;4946828;29;20046;-80
2021/12/18 17:30:46;;;;;;;7.93;5.17;;;;;;;;;;4944727;28;20472;-80
2021/12/18 17:33:53;;;;;;;9.27;5.47;;;;;;;;;;4948956;28;20055;-80
2021/12/18 17:36:59;;;;;;;8.57;5.47;;;;;;;;;;4942904;29;20044;-80
2021/12/18 17:40:09;;;;;;;9.67;5.93;;;;;;;;;;4938964;29;20043;-82
2021/12/18 17:43:16;;;;;;;8.90;6.30;;;;;;;;;;4949945;28;20067;-82
2021/12/18 17:46:22;;;;;;;8.53;6.37;;;;;;;;;;4960525;28;20028;-78
2021/12/18 17:49:31;;;;;;;21.93;14.10;;;;;;;;;;4932490;28;20040;-80
2021/12/18 17:52:43;;;;;;;9.65;5.65;;;;;;;;;;4947405;29;20417;-79
2021/12/18 17:55:51;;;;;;;5.90;4.17;;;;;;;;;;4932819;28;20048;-80
2021/12/18 17:58:57;;;;;;;6.47;4.47;;;;;;;;;;4940020;28;20046;-77
2021/12/18 18:02:06;;;;;;;8.23;5.20;;;;;;;;;;4931748;29;20050;-78
2021/12/18 18:05:13;;;;;;;7.93;5.47;;;;;;;;;;4941726;29;20054;-79
2021/12/18 18:08:23;;;;;;;7.53;4.77;;;;;;;;;;4931624;29;20059;-78
2021/12/18 18:11:29;;;;;;;5.77;3.97;;;;;;;;;;4938415;28;20058;-79
2021/12/18 18:14:35;;;;;;;8.60;5.73;;;;;;;;;;4927935;28;20519;-79
2021/12/18 18:17:46;;;;;;;4.33;2.90;;;;;;;;;;4949907;29;20055;-79
2021/12/18 18:20:54;;;;;;;6.33;5.07;;;;;;;;;;4941607;29;20047;-78
2021/12/18 18:24:00;;;;;;;7.03;4.70;;;;;;;;;;4944021;28;20522;-77
2021/12/18 18:27:06;;;;;;;5.07;4.07;;;;;;;;;;4943979;28;20066;-77
2021/12/18 18:30:13;;;;;;;6.60;4.90;;;;;;;;;;4944558;28;20046;-76
2021/12/18 18:33:19;;;;;;;5.97;4.30;;;;;;;;;;4940743;28;20539;-79
2021/12/18 18:36:25;;;;;;;6.30;4.23;;;;;;;;;;4948156;29;20043;-77
2021/12/18 18:43:59;;;;;;;14.40;3.57;;;;;;;;;;5145781;27;73313;-70
2021/12/18 18:47:08;;;;;;;13.68;2.97;;;;;;;;;;5090927;28;20043;-73
2021/12/18 18:50:14;;;;;;;8.38;2.72;;;;;;;;;;5112788;28;20046;-71
